Date,TemperatureHighF,TemperatureAvgF,TemperatureLowF,DewpointHighF,DewpointAvgF,DewpointLowF,HumidityHigh,HumidityAvg,HumidityLow,PressureMaxIn,PressureMinIn,WindSpeedMaxMPH,WindSpeedAvgMPH,GustSpeedMaxMPH,PrecipitationSumIn
2013-1-1,62,49,33,39,26,13,94,52,18,30.23,30.08,15,2,18,0.00
2013-1-2,70,53,40,34,26,13,61,38,18,30.12,30.01,15,2,17,0.00
2013-1-3,71,51,40,33,28,20,65,45,16,30.17,30.05,12,2,13,0.00
2013-1-4,70,49,37,33,27,14,74,48,14,30.25,30.14,9,2,12,0.00
2013-1-5,65,46,32,41,33,24,87,64,24,30.29,30.16,7,1,8,0.00
2013-1-6,59,46,38,48,42,36,96,86,59,30.18,30.01,13,1,13,0.00
2013-1-7,67,48,37,45,38,33,94,73,37,30.13,29.99,7,2,8,0.00
2013-1-8,79,54,38,50,40,32,83,61,24,30.10,30.01,6,1,7,0.00
2013-1-9,68,54,46,55,45,38,95,73,47,30.10,29.98,7,1,10,0.00
2013-1-10,58,48,37,47,36,21,94,67,25,30.10,29.89,13,2,15,0.00
2013-1-11,56,41,31,33,27,16,89,59,26,30.19,30.04,12,2,17,0.00
2013-1-12,57,41,32,30,26,22,81,59,26,30.17,30.06,11,2,13,0.00
2013-1-13,57,41,29,28,25,10,83,57,25,30.18,30.03,14,2,18,0.00
2013-1-14,55,41,29,21,14,8,60,35,16,30.35,30.15,13,2,14,0.00
2013-1-15,66,46,33,31,23,17,62,43,21,30.44,30.31,9,2,10,0.00
2013-1-16,75,54,42,35,30,27,59,42,20,30.35,30.13,9,2,9,0.00
2013-1-17,80,59,47,33,24,12,53,30,9,30.16,30.02,14,3,18,0.00
2013-1-18,78,56,40,32,24,16,58,32,12,30.13,30.02,17,2,17,0.00
2013-1-19,79,59,41,25,20,12,49,25,9,30.16,30.05,14,2,16,0.00
2013-1-20,81,58,40,31,19,11,50,25,8,30.13,29.99,11,2,16,0.00
2013-1-21,81,61,43,23,16,6,43,21,6,30.08,29.97,12,2,16,0.00
2013-1-22,82,58,40,33,23,11,53,30,7,30.07,29.97,14,2,18,0.00
2013-1-23,77,59,51,49,35,22,88,43,23,30.10,29.98,8,1,9,0.09
2013-1-24,61,56,52,58,54,48,97,94,83,30.16,30.06,9,1,12,0.93
2013-1-25,60,57,55,58,55,52,97,93,75,30.11,29.95,11,1,13,0.14
2013-1-26,70,58,53,61,55,52,97,90,69,29.96,29.85,8,1,8,0.13
2013-1-27,65,52,39,54,46,33,97,80,37,30.02,29.89,9,1,10,0.00
2013-1-28,61,46,37,43,35,30,86,65,43,30.18,30.01,8,1,9,0.00
2013-1-29,60,46,37,41,36,32,90,72,40,30.22,30.12,7,1,9,0.00
2013-1-30,72,51,38,48,41,35,92,73,39,30.32,30.20,10,1,10,0.00
2013-1-31,80,56,41,47,43,38,93,67,26,30.24,30.08,10,1,10,0.00
2013-2-1,77,55,41,53,45,39,93,72,29,30.16,30.09,12,1,15,0.00
2013-2-2,74,60,49,53,47,40,91,64,32,30.19,30.09,8,1,9,0.00
2013-2-3,74,57,44,52,47,41,93,74,39,30.13,29.97,7,1,9,0.00
2013-2-4,72,53,42,53,44,38,94,75,45,30.06,29.95,7,1,8,0.00
2013-2-5,63,50,39,54,47,38,96,89,71,30.07,29.97,10,1,11,0.00
2013-2-6,66,52,42,50,46,40,95,81,49,30.09,29.98,8,1,11,0.00
2013-2-7,63,48,36,51,43,35,95,83,60,30.13,29.95,10,1,11,0.00
2013-2-8,57,44,36,43,39,34,96,84,56,29.96,29.84,13,1,15,0.07
2013-2-9,60,43,32,42,36,31,96,78,38,30.08,29.92,9,1,10,0.01
2013-2-10,55,43,32,44,37,30,94,82,56,30.09,29.99,7,1,8,0.00
2013-2-11,64,47,33,41,33,23,94,66,22,30.23,30.06,11,2,11,0.00
2013-2-12,66,46,31,41,32,21,89,64,19,30.34,30.21,9,1,12,0.00
2013-2-13,72,49,34,47,38,31,91,70,26,30.25,30.12,10,2,13,0.00
2013-2-14,80,54,37,45,37,28,88,59,16,30.18,30.03,14,2,14,0.00
2013-2-15,82,70,54,34,26,15,48,20,11,30.18,30.08,15,3,18,0.00
2013-2-16,83,60,46,38,28,19,54,33,10,30.14,29.96,11,2,14,0.00
2013-2-17,70,52,38,51,40,26,91,65,30,30.00,29.89,10,2,11,0.00
2013-2-18,66,53,45,50,46,43,93,80,52,30.04,29.91,11,1,14,0.00
2013-2-19,55,48,38,50,44,37,95,86,68,29.95,29.69,12,1,14,0.10
2013-2-20,63,44,32,40,35,29,95,71,40,29.99,29.70,9,1,11,0.00
2013-2-21,62,46,33,44,35,28,85,68,38,30.10,29.96,12,2,13,0.00
2013-2-22,68,48,32,42,35,29,88,65,28,30.19,30.09,12,1,12,0.00
2013-2-23,67,49,35,50,39,31,89,71,41,30.15,29.88,8,2,10,0.00
2013-2-24,69,53,40,34,24,12,78,38,12,30.20,29.99,16,2,16,0.00
2013-2-25,69,49,33,41,29,18,78,50,17,30.22,30.05,11,2,12,0.00
2013-2-26,77,54,36,37,30,23,83,44,16,30.11,29.96,10,2,13,0.00
2013-2-27,77,57,40,33,25,17,58,33,12,30.27,30.11,15,2,16,0.00
2013-2-28,83,59,43,37,29,20,63,36,11,30.31,30.20,12,2,12,0.00
2013-3-1,87,63,43,36,30,22,62,34,11,30.29,30.12,14,2,15,0.00
2013-3-2,84,62,46,43,35,26,70,42,14,30.18,30.05,9,2,12,0.00
2013-3-3,73,58,48,53,47,39,93,68,35,30.09,29.94,11,1,11,0.00
2013-3-4,70,53,43,53,47,41,94,82,51,30.07,29.97,11,1,14,0.00
2013-3-5,67,53,43,53,48,41,95,83,60,30.11,29.99,11,1,12,0.00
2013-3-6,57,51,42,49,46,40,94,84,62,30.13,29.98,8,1,10,0.00
2013-3-7,63,52,46,50,46,41,95,79,50,29.99,29.80,13,1,15,0.36
2013-3-8,59,48,42,49,45,40,96,89,68,30.00,29.75,11,1,12,0.52
2013-3-9,67,52,40,50,42,36,95,73,43,30.20,30.00,10,1,11,0.00
2013-3-10,78,56,38,45,38,31,89,59,21,30.26,30.12,9,1,10,0.00
2013-3-11,77,55,39,49,41,33,90,65,23,30.17,30.02,12,1,12,0.00
2013-3-12,80,58,42,52,45,39,91,67,29,30.07,29.99,10,1,11,0.00
2013-3-13,90,62,43,54,45,36,87,61,19,30.09,29.99,12,1,12,0.00
2013-3-14,83,62,46,57,48,40,89,65,28,30.07,29.97,7,1,8,0.00
2013-3-15,79,59,45,58,50,43,93,74,47,30.00,29.90,8,1,10,0.00
2013-3-16,70,55,46,58,50,45,97,86,62,29.96,29.85,8,1,10,0.00
2013-3-17,75,55,42,57,49,40,96,83,46,29.98,29.89,10,1,10,0.00
2013-3-18,66,52,43,55,48,42,96,87,65,30.07,29.95,11,1,11,0.00
2013-3-19,72,56,44,57,50,43,96,84,56,30.10,30.00,11,1,12,0.01
2013-3-20,73,58,48,58,52,47,95,81,55,30.07,29.92,12,1,12,0.00
2013-3-21,76,58,46,55,49,42,94,75,40,29.93,29.76,10,1,11,0.00
2013-3-22,78,60,44,48,36,14,79,45,17,29.87,29.77,11,2,14,0.00
2013-3-23,75,57,43,54,38,20,91,53,18,29.98,29.87,10,2,11,0.00
2013-3-24,81,57,41,54,42,31,86,61,19,30.00,29.86,10,1,12,0.00
2013-3-25,75,58,43,55,44,36,85,62,32,29.95,29.86,9,1,10,0.00
2013-3-26,72,56,44,55,47,39,92,73,49,29.94,29.88,12,1,12,0.00
2013-3-27,72,55,44,55,49,43,95,81,52,30.02,29.90,14,1,15,0.00
2013-3-28,75,56,43,57,50,42,96,82,49,30.06,29.99,12,1,13,0.00
2013-3-29,79,58,44,59,51,42,95,79,49,30.08,30.00,11,1,11,0.00
2013-3-30,76,60,52,57,52,48,95,79,46,30.10,30.02,11,1,13,0.00
2013-3-31,66,58,51,60,54,49,95,88,71,30.09,30.01,11,1,13,0.02
2013-4-1,68,56,49,57,51,47,96,84,60,30.14,30.05,12,1,16,0.00
2013-4-2,74,58,44,57,50,42,96,79,50,30.08,29.96,10,2,12,0.00
2013-4-3,78,59,43,59,51,42,95,78,44,30.06,29.96,11,1,11,0.00
2013-4-4,75,60,52,59,54,50,95,83,55,30.09,29.97,11,1,13,0.00
2013-4-5,75,60,53,59,54,50,93,83,57,30.08,29.94,11,1,11,0.00
2013-4-6,76,60,48,59,53,47,96,80,52,30.08,29.91,12,1,13,0.00
2013-4-7,79,62,48,58,50,44,91,69,39,29.94,29.75,9,1,12,0.00
2013-4-8,73,59,48,49,39,29,93,54,25,29.80,29.61,19,3,24,0.00
2013-4-9,76,57,42,46,38,30,76,54,21,29.99,29.80,12,2,13,0.00
2013-4-10,85,65,45,42,34,23,75,36,13,30.09,29.93,12,2,13,0.00
2013-4-11,77,60,45,50,43,35,83,56,30,29.95,29.73,12,2,15,0.00
2013-4-12,72,56,45,60,49,42,93,80,57,29.85,29.76,11,1,12,0.00
2013-4-13,69,55,47,57,51,45,97,87,66,29.90,29.81,11,1,12,0.00
2013-4-14,59,55,54,55,53,51,96,91,80,29.86,29.79,7,0,8,0.03
2013-4-15,60,56,50,53,51,46,92,83,74,29.87,29.80,10,1,11,0.00
2013-4-16,69,56,44,49,38,17,94,57,17,29.99,29.83,17,2,17,0.00
2013-4-17,74,56,40,42,31,22,66,41,18,30.12,29.99,12,2,13,0.00
2013-4-18,82,64,43,31,24,16,59,26,10,30.19,30.09,13,2,16,0.00
2013-4-19,88,64,42,45,34,18,64,38,9,30.15,29.94,14,2,14,0.00
2013-4-20,92,66,47,56,45,34,77,51,15,29.97,29.84,15,2,15,0.00
2013-4-21,85,65,49,55,47,40,89,56,27,29.97,29.88,11,1,12,0.00
2013-4-22,76,59,49,58,52,45,93,78,50,29.98,29.86,10,2,13,0.00
2013-4-23,77,61,50,57,52,47,91,74,48,29.94,29.84,14,1,14,0.00
2013-4-24,63,57,52,56,53,49,93,88,76,29.97,29.87,8,1,9,0.00
2013-4-25,74,60,51,53,50,46,94,71,41,30.10,29.93,14,2,15,0.00
2013-4-26,78,60,46,55,49,43,92,71,42,30.12,30.07,12,1,13,0.00
2013-4-27,82,62,47,59,52,44,92,71,44,30.11,29.96,11,1,12,0.00
2013-4-28,80,60,49,60,53,47,96,79,49,29.98,29.82,10,1,11,0.00
2013-4-29,76,60,49,61,54,48,96,84,57,29.88,29.75,11,2,12,0.00
2013-4-30,72,59,52,59,54,50,95,85,61,29.86,29.79,12,1,13,0.00
2013-5-1,79,64,50,61,55,48,92,74,50,30.06,29.86,11,1,12,0.00
2013-5-2,95,73,47,50,25,-8,95,31,2,30.09,29.96,18,3,22,0.00
2013-5-3,99,74,52,41,28,10,45,22,5,30.00,29.72,13,2,17,0.00
2013-5-4,81,63,48,57,48,32,85,58,31,29.79,29.68,14,2,14,0.00
2013-5-5,70,60,55,53,51,49,87,74,54,29.90,29.78,8,1,9,0.00
2013-5-6,67,58,55,58,54,49,96,86,64,29.99,29.85,10,1,10,0.12
2013-5-7,72,60,52,56,52,48,93,76,48,30.03,29.95,11,1,12,0.00
2013-5-8,73,60,49,56,50,46,92,74,49,30.08,30.02,11,2,14,0.00
2013-5-9,76,61,48,57,52,46,93,75,49,30.07,29.98,10,2,13,0.00
2013-5-10,84,64,49,62,55,48,95,75,43,30.07,29.96,9,1,11,0.00
2013-5-11,87,67,50,63,57,48,96,73,44,30.03,29.95,10,1,11,0.00
2013-5-12,98,74,52,64,57,50,92,61,27,30.01,29.86,9,1,12,0.00
2013-5-13,96,74,56,62,55,45,88,55,24,29.93,29.83,9,1,10,0.00
2013-5-14,82,62,48,59,53,46,95,75,43,29.95,29.85,13,2,14,0.00
2013-5-15,76,61,48,60,53,46,94,76,54,30.01,29.90,12,2,14,0.00
2013-5-16,75,60,48,60,53,46,94,79,59,29.95,29.86,12,1,12,0.00
2013-5-17,75,62,52,60,54,49,92,76,55,29.95,29.88,14,2,16,0.00
2013-5-18,78,63,49,59,52,47,93,70,45,30.01,29.92,14,2,14,0.00
2013-5-19,82,64,48,58,52,45,90,67,40,29.96,29.82,12,2,12,0.00
2013-5-20,84,67,50,62,54,45,88,66,44,29.92,29.83,10,2,14,0.00
2013-5-21,82,64,51,64,55,46,91,73,53,29.91,29.78,12,2,13,0.00
2013-5-22,78,63,51,60,53,47,94,73,51,29.81,29.73,15,2,15,0.00
2013-5-23,71,60,49,56,50,45,91,72,47,29.91,29.79,14,2,14,0.00
2013-5-24,75,60,46,57,50,43,91,71,49,29.95,29.88,13,2,16,0.00
2013-5-25,75,60,48,57,50,45,91,71,49,29.99,29.93,14,2,15,0.00
2013-5-26,76,61,48,57,51,45,92,72,50,30.01,29.95,13,2,15,0.00
2013-5-27,80,64,49,60,53,46,91,71,46,29.97,29.80,11,2,11,0.00
2013-5-28,85,67,52,62,55,49,90,69,40,29.84,29.69,10,2,11,0.00
2013-5-29,86,68,51,62,54,48,90,65,33,29.77,29.66,10,2,12,0.00
2013-5-30,82,66,51,61,54,48,92,69,45,29.83,29.72,11,1,11,0.00
2013-5-31,82,66,52,64,56,49,93,73,52,29.89,29.76,11,1,11,0.00
2013-6-1,89,69,53,66,58,50,94,73,44,29.81,29.68,8,1,9,0.00
2013-6-2,79,64,54,64,58,52,95,83,59,29.79,29.73,12,1,13,0.00
2013-6-3,80,66,54,62,58,52,93,79,52,29.86,29.76,11,1,12,0.00
2013-6-4,78,64,52,62,57,50,93,78,56,29.94,29.85,12,2,14,0.00
2013-6-5,77,61,50,60,54,48,94,80,55,29.98,29.89,12,2,14,0.00
2013-6-6,78,62,50,62,55,49,95,81,56,29.93,29.84,9,1,12,0.00
2013-6-7,79,64,54,63,57,52,94,81,55,29.88,29.75,10,1,11,0.00
2013-6-8,78,64,58,63,58,56,93,82,57,29.87,29.75,12,2,13,0.00
2013-6-9,77,62,59,63,58,55,93,86,60,29.89,29.83,8,1,10,0.00
2013-6-10,80,66,55,59,56,52,93,73,45,29.92,29.85,13,1,17,0.00
2013-6-11,85,67,53,63,57,51,94,73,44,29.91,29.84,10,1,11,0.00
2013-6-12,79,65,56,64,59,53,95,81,56,29.99,29.89,11,2,12,0.00
2013-6-13,80,66,55,64,59,52,91,78,57,29.98,29.85,10,2,12,0.00
2013-6-14,79,64,51,63,57,49,95,79,57,29.88,29.79,12,2,13,0.00
2013-6-15,78,65,55,62,58,53,93,80,55,29.94,29.84,11,2,14,0.00
2013-6-16,81,64,54,63,57,52,96,81,52,30.01,29.91,12,2,13,0.00
2013-6-17,82,65,50,64,56,48,94,76,49,29.95,29.83,10,2,13,0.00
2013-6-18,80,66,52,62,56,50,93,73,50,29.89,29.78,12,2,12,0.00
2013-6-19,86,68,51,58,53,44,94,63,31,29.84,29.73,13,1,15,0.00
2013-6-20,85,67,49,59,50,37,86,56,30,29.82,29.75,12,2,13,0.00
2013-6-21,85,67,52,58,53,47,88,64,39,29.86,29.79,11,2,12,0.00
2013-6-22,82,66,51,63,56,47,89,71,48,29.87,29.78,13,2,13,0.00
2013-6-23,76,62,52,62,56,50,94,81,61,29.85,29.76,11,2,12,0.00
2013-6-24,72,62,53,61,56,51,94,82,67,29.91,29.78,10,1,12,0.00
2013-6-25,78,66,54,64,58,52,94,78,60,29.95,29.86,12,1,14,0.00
2013-6-26,89,72,56,67,60,54,94,71,45,29.94,29.86,11,1,13,0.00
2013-6-27,91,75,60,68,62,57,91,68,42,29.97,29.91,11,1,11,0.00
2013-6-28,93,75,59,68,62,56,92,67,41,29.93,29.82,13,1,14,0.00
2013-6-29,97,78,60,69,62,57,90,63,36,29.83,29.69,10,1,10,0.00
2013-6-30,97,77,61,68,62,55,88,63,34,29.76,29.65,12,2,16,0.00
2013-7-1,94,74,61,69,64,59,94,72,42,29.83,29.74,12,1,14,0.00
2013-7-2,88,73,62,69,63,59,90,73,49,29.94,29.82,11,2,13,0.00
2013-7-3,89,70,60,67,62,58,95,77,42,29.87,29.74,12,1,14,0.00
2013-7-4,86,70,60,67,62,58,96,77,54,29.79,29.70,10,1,11,0.00
2013-7-5,83,68,60,67,62,58,94,81,57,29.81,29.72,11,2,14,0.00
2013-7-6,84,69,58,68,62,56,94,81,55,29.79,29.70,10,2,12,0.00
2013-7-7,84,68,58,67,60,56,97,79,52,29.82,29.73,9,2,12,0.00
2013-7-8,89,70,54,65,59,52,95,71,42,29.88,29.82,12,2,12,0.00
2013-7-9,92,72,55,65,57,50,89,62,34,29.94,29.87,13,2,15,0.00
2013-7-10,90,70,58,67,60,54,88,73,41,29.95,29.84,11,1,14,0.00
2013-7-11,84,71,62,69,63,59,90,78,60,29.92,29.83,9,1,11,0.00
2013-7-12,83,69,57,68,60,54,95,77,46,29.89,29.82,11,1,11,0.00
2013-7-13,86,68,54,65,59,52,95,77,45,29.93,29.81,9,1,11,0.00
2013-7-14,89,70,55,66,59,53,95,70,43,29.90,29.76,11,1,13,0.00
2013-7-15,87,68,55,62,57,52,92,70,38,29.84,29.76,12,2,12,0.00
2013-7-16,87,67,49,60,54,47,94,67,32,29.94,29.83,10,1,10,0.00
2013-7-17,89,69,51,60,53,46,87,61,26,29.99,29.91,9,1,11,0.00
2013-7-18,86,67,50,62,56,47,91,70,41,29.95,29.82,9,1,10,0.00
2013-7-19,85,67,53,63,56,50,92,71,44,29.88,29.77,10,1,12,0.00
2013-7-20,86,68,54,66,59,51,93,75,51,29.86,29.71,11,1,11,0.00
2013-7-21,82,68,62,67,62,59,91,82,60,29.89,29.76,8,1,9,0.00
2013-7-22,84,70,62,68,63,60,96,79,54,29.94,29.86,10,2,13,0.01
2013-7-23,83,69,60,66,60,57,94,77,48,29.99,29.89,11,1,13,0.00
2013-7-24,81,66,56,65,59,54,95,79,54,29.94,29.85,10,1,11,0.00
2013-7-25,84,66,55,65,59,53,95,78,52,29.97,29.89,9,1,12,0.00
2013-7-26,88,67,57,67,59,54,93,77,51,30.06,29.94,11,1,11,0.00
2013-7-27,83,67,56,65,58,54,94,76,49,29.97,29.83,12,1,12,0.00
2013-7-28,81,65,56,64,58,54,95,81,56,29.90,29.83,12,2,12,0.00
2013-7-29,82,66,56,64,58,53,91,77,53,29.99,29.87,11,1,12,0.00
2013-7-30,80,64,52,62,56,50,95,79,53,30.09,29.99,11,2,12,0.00
2013-7-31,78,62,51,62,56,50,94,82,54,30.09,29.97,11,1,13,0.00
2013-8-1,79,63,54,62,56,52,95,81,55,30.01,29.86,11,1,11,0.00
2013-8-2,81,64,51,63,57,49,95,78,51,29.93,29.86,11,2,12,0.00
2013-8-3,81,64,53,64,57,51,95,81,54,29.97,29.89,10,1,10,0.00
2013-8-4,81,63,52,63,56,50,96,80,52,29.99,29.89,10,1,10,0.00
2013-8-5,83,63,46,61,53,44,95,74,42,29.98,29.88,11,1,12,0.00
2013-8-6,81,63,50,61,55,47,94,78,50,30.01,29.93,12,2,12,0.00
2013-8-7,80,63,49,62,55,48,95,78,51,30.05,29.94,12,1,12,0.00
2013-8-8,82,64,49,62,55,47,95,77,50,29.96,29.87,12,1,13,0.00
2013-8-9,79,63,50,62,55,48,94,78,53,29.93,29.87,12,1,12,0.00
2013-8-10,80,63,51,62,56,48,93,79,54,29.99,29.92,11,1,13,0.00
2013-8-11,82,64,51,63,57,49,96,79,49,29.97,29.86,9,1,11,0.00
2013-8-12,83,64,50,64,57,49,95,79,51,29.94,29.85,10,1,11,0.00
2013-8-13,84,65,51,65,58,50,96,79,50,29.95,29.83,10,1,10,0.00
2013-8-14,88,67,51,65,58,50,96,77,46,29.89,29.78,9,1,9,0.00
2013-8-15,89,68,51,67,59,50,95,76,45,29.90,29.84,10,1,12,0.00
2013-8-16,88,69,55,66,58,50,95,72,36,29.92,29.85,10,1,11,0.00
2013-8-17,90,69,54,64,57,51,92,70,37,29.91,29.77,10,1,11,0.00
2013-8-18,90,67,51,64,57,49,94,74,39,29.87,29.76,10,1,11,0.00
2013-8-19,85,67,57,66,60,55,95,80,53,29.91,29.81,9,1,9,0.00
2013-8-20,88,65,56,65,58,54,97,83,45,29.92,29.81,9,1,11,0.00
2013-8-21,88,68,52,63,56,50,93,69,36,29.89,29.80,12,1,12,0.00
2013-8-22,94,73,52,62,55,47,88,59,26,29.88,29.77,10,1,11,0.00
2013-8-23,90,69,52,59,52,43,85,59,30,29.82,29.69,10,1,12,0.00
2013-8-24,89,67,50,62,54,45,87,66,29,29.83,29.72,10,1,10,0.00
2013-8-25,92,69,50,62,53,43,89,61,29,29.88,29.79,9,1,10,0.00
2013-8-26,95,74,54,60,49,38,82,46,20,29.89,29.78,11,1,11,0.00
2013-8-27,92,75,63,64,58,48,80,57,35,29.81,29.72,11,1,12,0.00
2013-8-28,94,75,60,66,59,54,88,62,27,29.84,29.73,9,1,12,0.00
2013-8-29,98,78,61,64,58,53,78,54,28,29.89,29.80,9,1,12,0.00
2013-8-30,100,81,67,71,63,56,79,56,31,29.91,29.85,14,2,15,0.00
2013-8-31,94,80,69,73,67,62,87,67,46,29.91,29.82,13,1,14,0.00
2013-9-1,94,76,66,74,67,63,92,75,51,29.89,29.80,13,1,16,0.00
2013-9-2,92,75,63,71,66,62,94,76,49,29.88,29.74,9,1,10,0.00
2013-9-3,95,77,63,69,64,59,90,66,41,29.85,29.77,10,1,11,0.00
2013-9-4,96,77,62,66,61,56,84,61,34,29.87,29.78,8,1,10,0.00
2013-9-5,99,76,59,65,60,55,87,61,29,29.84,29.76,8,1,9,0.00
2013-9-6,100,78,62,63,58,52,82,54,24,29.83,29.73,9,1,10,0.00
2013-9-7,98,76,61,63,55,46,86,53,22,29.83,29.73,13,1,13,0.00
2013-9-8,89,70,59,62,58,52,89,68,34,29.81,29.70,7,1,13,0.00
2013-9-9,83,65,56,64,58,53,94,79,51,29.78,29.70,12,1,13,0.00
2013-9-10,80,65,56,63,58,54,95,80,53,29.90,29.77,10,1,11,0.00
2013-9-11,81,64,54,64,57,52,94,80,52,29.98,29.89,10,1,12,0.00
2013-9-12,89,68,52,63,56,49,93,71,38,29.91,29.78,9,1,10,0.00
2013-9-13,88,69,53,62,55,48,89,65,37,29.79,29.62,11,1,11,0.00
2013-9-14,90,71,56,64,57,51,87,65,38,29.68,29.59,9,1,10,0.00
2013-9-15,91,71,55,65,57,50,85,65,38,29.73,29.63,9,1,10,0.00
2013-9-16,93,70,54,63,55,46,89,63,30,29.79,29.69,8,1,11,0.00
2013-9-17,82,64,50,61,54,45,91,72,48,29.78,29.68,10,1,11,0.00
2013-9-18,80,67,54,63,58,51,93,76,55,29.78,29.71,10,2,12,0.00
2013-9-19,82,64,52,65,58,49,93,80,56,29.79,29.71,9,2,10,0.00
2013-9-20,78,66,61,64,60,58,92,81,60,29.86,29.78,10,1,11,0.00
2013-9-21,78,65,57,63,59,54,92,82,56,29.88,29.75,15,1,15,0.00
2013-9-22,82,65,52,58,52,44,93,65,33,29.82,29.73,11,2,12,0.00
2013-9-23,95,71,55,52,46,39,65,45,15,29.84,29.78,12,2,16,0.00
2013-9-24,90,69,54,58,48,39,80,50,24,29.89,29.78,13,2,13,0.00
2013-9-25,78,63,52,60,52,46,84,70,50,29.79,29.64,15,2,15,0.00
2013-9-26,79,64,50,54,49,38,87,62,26,29.86,29.68,12,2,14,0.00
2013-9-27,87,66,48,42,36,30,74,38,15,29.97,29.85,11,2,13,0.00
2013-9-28,88,66,49,43,35,28,60,36,14,30.01,29.93,10,2,13,0.00
2013-9-29,90,65,48,49,40,30,69,44,17,30.03,29.93,9,1,11,0.00
2013-9-30,88,66,49,54,46,38,77,52,22,29.95,29.80,9,1,10,0.00
2013-10-1,82,64,49,61,52,43,83,66,41,29.90,29.82,9,1,11,0.00
2013-10-2,75,59,52,60,54,48,93,82,59,29.94,29.84,12,1,13,0.00
2013-10-3,75,61,51,61,55,50,95,82,56,29.90,29.79,9,1,12,0.00
2013-10-4,86,70,50,52,30,14,94,38,8,30.01,29.84,17,3,24,0.00
2013-10-5,91,77,62,32,22,14,28,14,7,30.10,29.98,19,4,24,0.00
2013-10-6,95,74,56,39,27,16,44,20,6,30.05,29.92,13,2,14,0.00
2013-10-7,83,60,50,56,40,24,87,50,15,29.94,29.85,8,1,10,0.00
2013-10-8,77,59,45,58,47,34,84,66,34,29.90,29.78,10,2,13,0.00
2013-10-9,66,57,46,54,48,43,89,74,50,29.79,29.64,13,2,18,0.00
2013-10-10,70,54,42,53,46,39,91,77,47,30.00,29.77,11,1,15,0.00
2013-10-11,76,57,45,55,49,43,94,78,45,30.03,29.92,10,1,11,0.00
2013-10-12,79,59,45,56,48,40,91,71,38,29.96,29.86,11,1,11,0.00
2013-10-13,73,56,44,56,50,42,94,80,52,30.00,29.90,11,1,11,0.00
2013-10-14,86,63,45,54,43,34,95,57,17,30.01,29.87,13,2,16,0.00
2013-10-15,89,66,48,43,36,30,65,37,14,29.95,29.83,15,2,15,0.00
2013-10-16,88,69,53,40,31,21,53,28,9,30.04,29.94,14,2,15,0.00
2013-10-17,84,61,44,54,40,32,80,51,17,30.02,29.89,10,1,11,0.00
2013-10-18,84,62,47,54,43,33,73,53,22,29.98,29.90,10,1,12,0.00
2013-10-19,89,61,44,58,43,29,84,56,15,30.01,29.91,7,1,9,0.00
2013-10-20,80,59,45,57,45,33,92,63,32,29.95,29.86,9,1,11,0.00
2013-10-21,78,56,40,58,48,38,93,76,46,29.96,29.87,7,1,8,0.00
2013-10-22,78,56,43,58,49,40,93,77,45,29.98,29.87,7,1,7,0.00
2013-10-23,71,57,49,58,52,46,95,86,61,29.97,29.87,9,1,9,0.00
2013-10-24,74,60,52,58,54,50,93,82,56,30.03,29.92,13,1,13,0.00
2013-10-25,75,58,50,60,53,48,95,85,59,30.12,29.98,9,1,10,0.00
2013-10-26,83,60,46,58,47,38,94,66,23,30.07,29.94,7,1,8,0.00
2013-10-27,75,58,45,57,47,33,89,68,42,29.95,29.78,13,2,13,0.00
2013-10-28,66,55,47,55,49,44,92,81,54,29.91,29.75,16,2,17,0.02
2013-10-29,68,54,45,52,48,43,94,82,54,29.99,29.90,15,1,16,0.00
2013-10-30,76,54,41,50,44,38,92,72,33,30.05,29.95,9,1,11,0.00
2013-10-31,79,57,42,48,40,33,83,57,23,30.08,29.97,11,2,12,0.00
2013-11-1,88,64,48,42,36,32,69,40,14,30.07,29.91,12,2,14,0.00
2013-11-2,85,61,47,46,38,31,68,45,18,29.96,29.84,11,1,13,0.00
2013-11-3,71,55,43,56,46,36,90,72,49,29.90,29.79,9,1,11,0.00
2013-11-4,72,57,47,56,50,37,94,77,51,29.94,29.77,10,1,11,0.00
2013-11-5,77,58,43,37,28,19,75,38,13,30.15,29.94,15,2,16,0.00
2013-11-6,85,64,48,35,24,18,38,25,10,30.17,30.07,8,2,14,0.00
2013-11-7,89,64,50,39,31,25,48,30,12,30.11,29.97,10,2,10,0.00
2013-11-8,82,59,44,54,36,26,70,46,17,30.00,29.89,9,1,10,0.00
2013-11-9,78,57,43,56,40,28,89,57,25,30.06,29.96,8,1,10,0.00
2013-11-10,85,56,44,48,36,24,77,51,13,30.11,30.01,13,1,16,0.00
2013-11-11,78,56,42,49,39,32,76,56,27,30.11,30.01,9,1,10,0.00
2013-11-12,81,61,47,52,42,31,71,50,24,30.16,30.05,5,1,5,0.00
2013-11-13,94,68,49,45,35,28,57,34,11,30.06,29.87,13,2,13,0.00
2013-11-14,92,65,50,52,40,32,75,45,13,29.91,29.72,9,1,9,0.00
2013-11-15,72,55,46,56,47,37,90,74,52,29.74,29.64,11,1,14,0.00
2013-11-16,66,57,49,56,52,46,92,83,65,29.91,29.71,10,1,14,0.00
2013-11-17,70,56,47,54,49,44,93,80,50,30.07,29.90,9,1,11,0.00
2013-11-18,69,53,43,54,47,41,94,82,56,30.14,30.03,9,1,11,0.00
2013-11-19,67,54,46,54,49,44,93,83,61,30.08,29.92,9,1,9,0.00
2013-11-20,69,57,50,56,53,47,97,86,61,29.95,29.84,8,1,9,0.26
2013-11-21,66,58,52,60,55,44,98,91,70,29.86,29.78,11,1,11,0.33
2013-11-22,64,56,52,44,41,38,76,57,45,29.95,29.82,17,3,18,0.00
2013-11-23,66,55,47,45,41,39,80,60,42,30.08,29.93,14,2,14,0.00
2013-11-24,70,54,45,48,43,39,87,68,35,30.19,30.06,11,1,12,0.00
2013-11-25,76,54,41,46,41,37,89,64,29,30.24,30.12,8,1,10,0.00
2013-11-26,77,59,46,48,41,36,75,54,24,30.17,30.01,10,2,14,0.00
2013-11-27,76,59,47,44,41,38,81,55,27,30.01,29.83,12,1,13,0.00
2013-11-28,72,59,48,47,42,38,79,55,31,30.02,29.85,9,1,10,0.00
2013-11-29,72,58,50,50,46,42,90,66,38,30.16,30.01,11,1,18,0.03
2013-11-30,79,59,48,45,41,38,80,55,24,30.17,30.04,11,2,12,0.00
2013-12-1,81,59,45,40,36,31,78,45,18,30.22,30.08,9,2,9,0.00
2013-12-2,76,56,44,48,37,30,71,52,23,30.11,29.88,7,1,7,0.00
2013-12-3,67,52,42,53,43,34,88,72,41,29.88,29.70,13,1,13,0.00
2013-12-4,63,46,36,43,30,21,86,57,21,29.95,29.74,11,2,11,0.00
2013-12-5,61,44,33,37,30,24,86,61,33,30.09,29.93,9,1,10,0.00
2013-12-6,61,43,30,40,32,27,90,69,39,30.17,30.07,9,1,11,0.00
2013-12-7,53,41,34,49,36,29,96,84,54,30.12,29.95,8,1,10,0.28
2013-12-8,56,40,32,38,32,28,89,75,38,30.21,30.08,6,1,7,0.00
2013-12-9,62,45,31,29,17,1,86,41,13,30.29,30.18,16,2,16,0.00
2013-12-10,67,46,33,25,18,4,58,36,12,30.26,30.09,11,2,13,0.00
2013-12-11,71,50,35,29,22,15,63,39,13,30.16,30.08,14,2,17,0.00
2013-12-12,71,50,38,44,31,21,80,52,18,30.19,30.10,12,2,12,0.00
2013-12-13,67,47,34,46,35,28,89,67,35,30.21,30.10,7,1,8,0.00
2013-12-14,77,56,42,33,28,22,63,37,14,30.29,30.17,15,2,15,0.00
2013-12-15,83,61,47,39,28,22,41,30,12,30.25,30.06,9,2,11,0.00
2013-12-16,87,65,53,46,31,23,48,31,12,30.11,30.01,10,2,11,0.00
2013-12-17,86,65,54,48,35,28,56,36,13,30.10,29.97,9,1,13,0.00
2013-12-18,70,59,50,52,44,30,90,61,32,29.97,29.82,11,1,13,0.01
2013-12-19,61,51,41,51,46,38,94,84,59,29.82,29.65,11,1,11,0.02
2013-12-20,68,49,38,42,38,34,91,68,32,29.92,29.78,7,1,9,0.00
2013-12-21,64,48,35,49,40,32,93,76,47,30.08,29.90,10,1,10,0.00
2013-12-22,69,49,37,51,42,35,96,80,45,30.26,30.08,10,1,10,0.00
2013-12-23,79,58,42,42,38,35,83,51,24,30.29,30.19,9,2,11,0.00
2013-12-24,83,61,46,40,35,31,61,41,18,30.19,30.06,11,2,12,0.00
2013-12-25,80,62,50,38,28,17,45,28,13,30.18,30.09,16,2,17,0.00
2013-12-26,83,65,48,25,16,4,36,16,6,30.14,30.03,19,3,19,0.00
2013-12-27,85,62,46,30,19,10,33,21,7,30.14,30.00,10,2,13,0.00
2013-12-28,77,55,43,47,32,20,74,44,13,30.02,29.88,8,1,10,0.00
2013-12-29,78,56,43,31,21,14,61,29,11,30.13,29.98,15,2,17,0.00
2013-12-30,76,54,44,29,22,16,44,30,12,30.24,30.13,8,1,9,0.00
2013-12-31,72,50,37,45,31,21,72,51,17,30.19,30.06,8,1,8,0.00
2014-1-1,78,55,41,47,34,24,70,47,25,30.12,30.00,7,1,9,0.00
2014-1-2,83,60,49,39,32,28,48,36,15,30.09,29.96,9,2,10,0.00